Time;durP1;ratioP1;P1;durP2;ratioP2;P2;SDS_P1;SDS_P2;PMS_P1;PMS_P2;Temp;Humidity;BMP_temperature;BMP_pressure;BME280_temperature;BME280_humidity;BME280_pressure;Samples;Min_cycle;Max_cycle;Signal;HPM_P1;HPM_P2
2024/02/18 00:00:06;;;;;;;17.20;14.60;;;9.80;74.20;;;;;;4890587;29;20210;-63
2024/02/18 00:02:34;;;;;;;18.77;14.33;;;9.80;74.70;;;;;;4888552;29;20396;-63
2024/02/18 00:05:01;;;;;;;17.27;13.00;;;9.90;74.30;;;;;;4902547;29;20241;-63
2024/02/18 00:07:27;;;;;;;18.63;14.23;;;9.90;74.10;;;;;;4905958;29;20265;-64
2024/02/18 00:09:55;;;;;;;19.07;14.60;;;9.80;74.70;;;;;;4907277;29;20213;-63
2024/02/18 00:12:23;;;;;;;18.77;13.67;;;9.80;75.30;;;;;;4908019;29;20226;-63
2024/02/18 00:14:50;;;;;;;16.63;13.90;;;9.90;74.80;;;;;;4907368;29;20274;-63
2024/02/18 00:17:16;;;;;;;18.50;15.20;;;9.90;74.60;;;;;;4905732;29;20720;-63
2024/02/18 00:19:43;;;;;;;19.07;14.50;;;9.90;74.30;;;;;;4896693;29;20304;-63
2024/02/18 00:22:09;;;;;;;19.97;15.10;;;9.90;74.10;;;;;;4903248;29;20252;-63
2024/02/18 00:24:36;;;;;;;17.20;13.63;;;9.80;74.70;;;;;;4907499;29;20275;-63
2024/02/18 00:27:03;;;;;;;17.23;14.23;;;9.90;75.00;;;;;;4908998;29;20224;-63
2024/02/18 00:29:29;;;;;;;20.73;14.93;;;10.00;73.60;;;;;;4905863;29;20206;-63
2024/02/18 00:31:56;;;;;;;18.67;14.67;;;9.90;74.50;;;;;;4907323;29;20277;-63
2024/02/18 00:34:23;;;;;;;18.50;14.53;;;9.90;74.80;;;;;;4904507;29;20210;-63
2024/02/18 00:36:49;;;;;;;17.97;13.53;;;9.90;74.60;;;;;;4902343;29;20263;-63
2024/02/18 00:39:18;;;;;;;17.33;13.90;;;9.90;74.10;;;;;;4908500;29;20269;-64
2024/02/18 00:41:45;;;;;;;17.90;14.80;;;9.90;74.90;;;;;;4899861;29;20236;-63
2024/02/18 00:44:11;;;;;;;16.73;13.80;;;9.90;74.70;;;;;;4908259;29;20207;-63
2024/02/18 00:46:38;;;;;;;19.17;14.97;;;10.00;73.70;;;;;;4906691;29;20297;-63
2024/02/18 00:49:04;;;;;;;18.57;14.40;;;10.10;73.10;;;;;;4905139;29;20344;-63
2024/02/18 00:51:31;;;;;;;19.67;14.30;;;10.10;73.10;;;;;;4908619;29;20284;-61
2024/02/18 00:53:57;;;;;;;19.83;14.33;;;9.90;74.90;;;;;;4904832;29;20237;-63
2024/02/18 00:56:25;;;;;;;20.47;15.73;;;9.90;74.80;;;;;;4892730;29;20319;-63
2024/02/18 00:58:51;;;;;;;17.93;14.77;;;10.00;73.80;;;;;;4896995;29;20217;-64
2024/02/18 01:01:18;;;;;;;16.73;14.10;;;10.00;73.40;;;;;;4902629;29;20230;-63
2024/02/18 01:03:45;;;;;;;22.10;15.93;;;10.00;73.30;;;;;;4900403;29;20679;-64
2024/02/18 01:06:11;;;;;;;20.33;14.90;;;10.00;73.20;;;;;;4891025;29;20230;-64
2024/02/18 01:08:38;;;;;;;17.40;14.73;;;10.00;73.70;;;;;;4904753;29;20277;-63
2024/02/18 01:11:05;;;;;;;18.97;14.90;;;10.00;74.00;;;;;;4908239;29;20217;-63
2024/02/18 01:13:31;;;;;;;20.73;15.23;;;10.10;73.60;;;;;;4908314;29;20353;-63
2024/02/18 01:15:58;;;;;;;20.03;15.33;;;10.00;73.70;;;;;;4902978;29;20655;-64
2024/02/18 01:18:24;;;;;;;17.77;14.27;;;10.00;73.60;;;;;;4904854;29;20213;-63
2024/02/18 01:20:50;;;;;;;19.50;14.67;;;9.90;76.10;;;;;;4900119;29;20237;-63
2024/02/18 01:23:16;;;;;;;21.63;15.87;;;10.00;74.30;;;;;;4902727;29;20218;-63
2024/02/18 01:25:43;;;;;;;20.57;14.97;;;10.00;73.80;;;;;;4904873;29;20559;-63
2024/02/18 01:28:09;;;;;;;20.10;14.80;;;10.10;73.30;;;;;;4907948;29;20219;-63
2024/02/18 01:30:35;;;;;;;21.17;15.47;;;10.00;73.60;;;;;;4898563;29;20250;-63
2024/02/18 01:33:01;;;;;;;18.33;14.37;;;10.00;74.20;;;;;;4899278;29;20792;-64
2024/02/18 01:35:29;;;;;;;19.20;14.57;;;10.10;73.50;;;;;;4899650;29;20558;-63
2024/02/18 01:37:56;;;;;;;19.57;14.90;;;10.20;73.40;;;;;;4906057;29;20236;-63
2024/02/18 01:40:23;;;;;;;19.63;14.87;;;10.10;73.10;;;;;;4897817;29;20305;-63
2024/02/18 01:42:49;;;;;;;19.03;15.37;;;9.90;74.90;;;;;;4905759;29;20305;-63
2024/02/18 01:45:16;;;;;;;17.90;14.77;;;10.00;74.20;;;;;;4904108;29;20222;-63
2024/02/18 01:47:43;;;;;;;19.67;14.40;;;10.10;73.80;;;;;;4908300;29;20216;-63
2024/02/18 01:50:09;;;;;;;18.33;13.83;;;10.00;74.20;;;;;;4902145;29;20226;-63
2024/02/18 01:52:36;;;;;;;17.90;14.07;;;10.10;74.40;;;;;;4905739;29;20232;-63
2024/02/18 01:55:02;;;;;;;18.70;14.63;;;10.10;73.90;;;;;;4900151;29;20220;-63
2024/02/18 01:57:29;;;;;;;21.77;15.30;;;10.10;74.10;;;;;;4902516;29;20249;-63
2024/02/18 01:59:56;;;;;;;19.63;15.10;;;10.10;74.60;;;;;;4900653;29;20214;-63
2024/02/18 02:02:22;;;;;;;20.43;15.30;;;10.10;73.70;;;;;;4907298;29;20236;-63
2024/02/18 02:04:49;;;;;;;17.97;14.63;;;10.00;74.10;;;;;;4897237;29;20209;-63
2024/02/18 02:07:15;;;;;;;18.33;15.07;;;9.90;75.20;;;;;;4908141;29;20589;-63
2024/02/18 02:09:42;;;;;;;21.00;15.07;;;9.90;75.40;;;;;;4905287;29;20216;-63
2024/02/18 02:12:09;;;;;;;18.50;15.07;;;10.00;74.30;;;;;;4904423;29;20253;-63
2024/02/18 02:14:35;;;;;;;18.00;15.07;;;9.80;75.30;;;;;;4905650;29;20264;-63
2024/02/18 02:17:02;;;;;;;20.93;15.30;;;9.70;76.00;;;;;;4903957;29;20237;-63
2024/02/18 02:19:29;;;;;;;17.17;14.17;;;9.70;76.30;;;;;;4899593;29;20758;-63
2024/02/18 02:21:55;;;;;;;17.13;13.77;;;9.80;76.10;;;;;;4899439;29;20376;-63
2024/02/18 02:24:22;;;;;;;17.70;14.20;;;9.90;75.70;;;;;;4891889;29;20214;-63
2024/02/18 02:26:48;;;;;;;18.07;14.40;;;9.80;75.40;;;;;;4910339;29;20260;-63
2024/02/18 02:29:16;;;;;;;18.30;13.90;;;9.80;75.90;;;;;;4908041;29;20213;-63
2024/02/18 02:31:44;;;;;;;18.53;15.43;;;9.70;76.80;;;;;;4906931;29;20323;-63
2024/02/18 02:34:11;;;;;;;20.43;15.43;;;9.70;75.70;;;;;;4907252;29;20741;-63
2024/02/18 02:36:37;;;;;;;20.10;14.73;;;9.50;76.90;;;;;;4909289;29;20576;-64
2024/02/18 02:39:04;;;;;;;18.33;14.33;;;9.60;77.40;;;;;;4903964;29;20210;-63
2024/02/18 02:41:30;;;;;;;20.87;14.93;;;9.70;77.10;;;;;;4901334;29;20295;-63
2024/02/18 02:43:57;;;;;;;16.90;13.90;;;9.80;76.30;;;;;;4910919;29;20284;-63
2024/02/18 02:46:23;;;;;;;18.27;15.03;;;9.90;75.80;;;;;;4910562;29;20277;-63
2024/02/18 02:48:50;;;;;;;18.17;14.53;;;9.80;75.20;;;;;;4907709;29;20857;-63
2024/02/18 02:51:16;;;;;;;19.80;14.70;;;9.70;76.30;;;;;;4906598;29;20241;-63
2024/02/18 02:53:43;;;;;;;17.80;14.77;;;9.70;76.20;;;;;;4908619;29;20213;-63
2024/02/18 02:56:09;;;;;;;20.57;15.83;;;9.60;76.40;;;;;;4910587;29;20213;-63
2024/02/18 02:58:36;;;;;;;20.43;14.43;;;9.40;76.80;;;;;;4908602;29;20241;-63
2024/02/18 03:01:02;;;;;;;20.47;14.67;;;9.50;77.40;;;;;;4911380;29;20263;-63
2024/02/18 03:03:29;;;;;;;20.13;15.57;;;9.40;77.30;;;;;;4907519;29;20305;-63
2024/02/18 03:05:55;;;;;;;18.43;15.07;;;9.40;77.50;;;;;;4910284;29;20224;-63
2024/02/18 03:08:22;;;;;;;20.07;15.03;;;9.30;77.20;;;;;;4910352;29;20204;-63
2024/02/18 03:10:49;;;;;;;19.60;15.30;;;9.20;78.40;;;;;;4897968;29;20216;-63
2024/02/18 03:13:15;;;;;;;18.87;14.90;;;9.10;77.90;;;;;;4897783;29;20261;-63
2024/02/18 03:15:42;;;;;;;17.80;14.50;;;9.10;78.40;;;;;;4899265;29;20207;-63
2024/02/18 03:18:09;;;;;;;19.00;14.63;;;9.20;78.90;;;;;;4906958;29;20291;-63
2024/02/18 03:20:36;;;;;;;18.37;13.50;;;9.40;77.90;;;;;;4906368;29;20293;-63
2024/02/18 03:23:02;;;;;;;18.87;14.57;;;9.50;76.60;;;;;;4907925;29;20593;-63
2024/02/18 03:25:29;;;;;;;18.50;13.60;;;9.60;76.70;;;;;;4908600;29;20218;-63
2024/02/18 03:27:57;;;;;;;20.77;14.83;;;9.30;76.40;;;;;;4906632;29;20641;-63
2024/02/18 03:30:23;;;;;;;20.63;15.00;;;9.20;77.20;;;;;;4906755;29;20213;-63
2024/02/18 03:32:50;;;;;;;19.30;14.77;;;9.10;77.50;;;;;;4893625;29;20300;-63
2024/02/18 03:35:16;;;;;;;21.53;14.57;;;9.10;77.50;;;;;;4899747;29;20212;-63
2024/02/18 03:37:43;;;;;;;18.93;15.13;;;9.00;77.90;;;;;;4908532;29;20738;-63
2024/02/18 03:40:09;;;;;;;23.00;15.60;;;9.00;78.50;;;;;;4906320;29;20680;-63
2024/02/18 03:42:36;;;;;;;20.43;14.93;;;8.90;78.90;;;;;;4902945;29;20603;-63
2024/02/18 03:45:04;;;;;;;19.73;14.83;;;8.80;78.30;;;;;;4909507;29;20700;-63
2024/02/18 03:47:31;;;;;;;17.97;13.97;;;8.80;79.10;;;;;;4909127;29;20208;-63
2024/02/18 03:49:57;;;;;;;18.40;14.67;;;9.00;78.70;;;;;;4903315;29;20243;-63
2024/02/18 03:52:24;;;;;;;20.67;15.37;;;8.90;77.40;;;;;;4894267;29;20232;-63
2024/02/18 03:54:50;;;;;;;19.17;14.97;;;8.80;77.70;;;;;;4909718;29;20272;-63
2024/02/18 03:57:17;;;;;;;18.63;14.73;;;8.70;78.70;;;;;;4909259;29;20800;-63
2024/02/18 03:59:44;;;;;;;18.93;14.40;;;8.90;77.70;;;;;;4906922;29;20219;-63
2024/02/18 04:02:10;;;;;;;18.30;14.80;;;8.80;78.00;;;;;;4906024;29;20235;-63
2024/02/18 04:04:37;;;;;;;21.73;15.57;;;8.80;77.20;;;;;;4907337;29;20208;-63
2024/02/18 04:07:03;;;;;;;20.27;14.80;;;8.70;77.30;;;;;;4900976;29;20609;-63
2024/02/18 04:09:30;;;;;;;18.67;14.80;;;8.60;77.60;;;;;;4897823;29;20212;-63
2024/02/18 04:11:57;;;;;;;18.47;14.50;;;8.70;77.90;;;;;;4904890;29;20235;-63
2024/02/18 04:14:24;;;;;;;17.57;14.43;;;8.50;77.50;;;;;;4905639;29;20267;-63
2024/02/18 04:16:50;;;;;;;21.03;15.67;;;8.50;78.10;;;;;;4905839;29;20692;-63
2024/02/18 04:19:17;;;;;;;17.73;13.23;;;8.60;78.30;;;;;;4905331;29;20747;-63
2024/02/18 04:21:43;;;;;;;17.00;13.17;;;8.50;79.60;;;;;;4904378;29;20287;-63
2024/02/18 04:24:10;;;;;;;19.37;15.37;;;8.80;78.30;;;;;;4907936;29;20635;-63
2024/02/18 04:26:36;;;;;;;20.67;15.40;;;8.90;77.20;;;;;;4895946;29;20287;-63
2024/02/18 04:29:03;;;;;;;21.70;15.00;;;8.90;76.90;;;;;;4907644;29;20212;-63
2024/02/18 04:31:29;;;;;;;21.20;15.37;;;9.00;76.80;;;;;;4890864;29;20223;-63
2024/02/18 04:33:56;;;;;;;21.30;15.40;;;8.90;77.30;;;;;;4904575;29;20298;-63
2024/02/18 04:36:22;;;;;;;19.73;14.80;;;8.90;77.00;;;;;;4908507;29;20683;-63
2024/02/18 04:38:49;;;;;;;19.60;14.77;;;8.80;78.30;;;;;;4904361;29;20643;-64
2024/02/18 04:41:16;;;;;;;18.63;13.60;;;8.80;78.70;;;;;;4903266;29;20763;-63
2024/02/18 04:43:43;;;;;;;19.93;15.43;;;9.00;78.20;;;;;;4889819;29;20293;-63
2024/02/18 04:46:09;;;;;;;21.73;15.73;;;9.00;77.70;;;;;;4905475;29;20705;-63
2024/02/18 04:48:36;;;;;;;20.57;15.43;;;8.90;77.80;;;;;;4903319;29;20208;-63
2024/02/18 04:51:02;;;;;;;18.60;14.23;;;8.80;78.50;;;;;;4907765;29;20679;-63
2024/02/18 04:53:29;;;;;;;17.63;14.27;;;9.00;78.70;;;;;;4907006;29;20209;-63
2024/02/18 04:55:55;;;;;;;19.30;15.43;;;8.90;77.60;;;;;;4907317;29;20242;-63
2024/02/18 04:58:23;;;;;;;18.70;15.03;;;8.90;78.50;;;;;;4905991;29;20267;-63
2024/02/18 05:00:50;;;;;;;17.43;14.67;;;8.90;78.50;;;;;;4900377;29;20235;-63
2024/02/18 05:03:17;;;;;;;18.87;14.93;;;9.10;78.00;;;;;;4897259;29;20215;-63
2024/02/18 05:05:43;;;;;;;19.90;14.93;;;9.20;76.40;;;;;;4904813;29;20298;-63
2024/02/18 05:08:10;;;;;;;20.07;13.80;;;9.10;76.80;;;;;;4903342;29;20583;-63
2024/02/18 05:10:36;;;;;;;18.27;14.77;;;9.10;76.70;;;;;;4904877;29;20602;-63
2024/02/18 05:13:03;;;;;;;18.60;14.93;;;9.10;77.40;;;;;;4895476;29;20639;-63
2024/02/18 05:15:30;;;;;;;17.00;13.63;;;9.00;77.50;;;;;;4898784;29;20695;-63
2024/02/18 05:17:56;;;;;;;19.27;14.67;;;9.00;77.80;;;;;;4900003;29;20319;-63
2024/02/18 05:20:23;;;;;;;20.27;15.40;;;9.00;77.80;;;;;;4884113;29;20609;-63
2024/02/18 05:22:50;;;;;;;21.17;16.23;;;9.00;77.80;;;;;;4903218;29;20234;-66
2024/02/18 05:25:16;;;;;;;19.97;15.27;;;9.00;77.80;;;;;;4907896;29;20276;-63
2024/02/18 05:27:43;;;;;;;19.93;15.90;;;9.00;78.20;;;;;;4905406;29;20237;-63
2024/02/18 05:30:09;;;;;;;21.87;15.87;;;9.10;77.80;;;;;;4904939;29;20594;-63
2024/02/18 05:32:37;;;;;;;21.90;16.50;;;9.10;77.70;;;;;;4906976;29;20224;-63
2024/02/18 05:35:04;;;;;;;18.90;15.20;;;9.00;78.00;;;;;;4900116;29;20248;-63
2024/02/18 05:37:30;;;;;;;18.10;14.23;;;9.00;78.40;;;;;;4901529;29;20228;-63
2024/02/18 05:39:57;;;;;;;18.07;14.67;;;9.10;77.90;;;;;;4904705;29;20638;-63
2024/02/18 05:42:24;;;;;;;20.23;15.03;;;9.10;77.20;;;;;;4903992;29;20297;-63
2024/02/18 05:44:50;;;;;;;19.43;15.37;;;9.00;77.50;;;;;;4906691;29;20216;-63
2024/02/18 05:47:17;;;;;;;19.93;14.90;;;8.90;78.30;;;;;;4905443;29;20223;-63
2024/02/18 05:49:43;;;;;;;18.57;15.87;;;8.80;78.10;;;;;;4906739;29;20596;-63
2024/02/18 05:52:10;;;;;;;19.87;15.47;;;8.80;78.80;;;;;;4900922;29;20314;-63
2024/02/18 05:54:36;;;;;;;21.77;14.90;;;8.80;78.60;;;;;;4887310;29;20244;-63
2024/02/18 05:57:03;;;;;;;21.20;14.97;;;8.80;78.10;;;;;;4907679;29;20299;-63
2024/02/18 05:59:29;;;;;;;18.57;13.87;;;8.70;78.00;;;;;;4907261;29;20268;-63
2024/02/18 06:01:56;;;;;;;20.13;15.33;;;8.70;78.30;;;;;;4904082;29;20228;-63
2024/02/18 06:04:23;;;;;;;20.80;15.80;;;8.50;78.00;;;;;;4901634;29;20295;-63
2024/02/18 06:06:49;;;;;;;18.77;14.47;;;8.40;79.40;;;;;;4909990;29;20203;-64
2024/02/18 06:09:16;;;;;;;19.87;14.63;;;8.40;80.10;;;;;;4904313;29;20217;-63
2024/02/18 06:11:42;;;;;;;18.87;14.17;;;8.60;79.60;;;;;;4906003;29;20243;-63
2024/02/18 06:14:09;;;;;;;19.23;13.87;;;8.70;78.70;;;;;;4910123;29;20285;-63
2024/02/18 06:16:35;;;;;;;20.07;14.57;;;8.70;78.10;;;;;;4909901;29;20694;-63
2024/02/18 06:19:02;;;;;;;17.90;14.33;;;8.70;77.20;;;;;;4911876;29;20231;-63
2024/02/18 06:21:28;;;;;;;18.60;14.97;;;8.70;77.20;;;;;;4900740;29;20295;-64
2024/02/18 06:23:56;;;;;;;19.40;13.80;;;8.50;78.00;;;;;;4908522;29;20241;-63
2024/02/18 06:26:27;;;;;;;18.33;14.00;;;8.60;77.90;;;;;;4900435;29;20209;-63
2024/02/18 06:28:54;;;;;;;18.83;14.27;;;8.50;77.40;;;;;;4893177;29;20208;-63
2024/02/18 06:31:21;;;;;;;18.83;13.30;;;8.30;78.00;;;;;;4900294;29;20231;-63
2024/02/18 06:33:48;;;;;;;16.87;12.67;;;8.20;78.80;;;;;;4908368;29;20240;-63
2024/02/18 06:36:15;;;;;;;15.03;11.40;;;8.60;78.80;;;;;;4909042;29;20247;-63
2024/02/18 06:38:41;;;;;;;18.10;12.67;;;8.70;77.20;;;;;;4908689;29;20225;-64
2024/02/18 06:41:08;;;;;;;14.73;11.80;;;8.70;76.00;;;;;;4912135;29;20660;-63
2024/02/18 06:43:34;;;;;;;15.47;12.27;;;8.80;76.30;;;;;;4897115;29;20267;-63
2024/02/18 06:46:01;;;;;;;15.90;12.10;;;8.80;76.00;;;;;;4910619;29;20211;-63
2024/02/18 06:48:27;;;;;;;15.87;11.93;;;8.90;75.80;;;;;;4909470;29;20294;-63
2024/02/18 06:50:54;;;;;;;15.63;11.57;;;8.90;75.60;;;;;;4895925;29;20250;-63
2024/02/18 06:53:20;;;;;;;14.30;10.97;;;9.00;75.70;;;;;;4907122;29;20231;-63
2024/02/18 06:55:47;;;;;;;16.23;11.63;;;9.10;75.00;;;;;;4903024;29;20212;-62
2024/02/18 06:58:14;;;;;;;13.83;11.40;;;9.00;74.40;;;;;;4900786;29;20220;-64
2024/02/18 07:00:41;;;;;;;14.83;11.87;;;9.00;75.00;;;;;;4899206;29;20212;-62
2024/02/18 07:03:08;;;;;;;15.67;11.77;;;9.00;74.60;;;;;;4905918;29;20323;-62
2024/02/18 07:05:34;;;;;;;14.67;10.87;;;9.10;74.40;;;;;;4905325;29;20574;-62
2024/02/18 07:08:01;;;;;;;14.00;11.50;;;9.00;74.70;;;;;;4910412;29;20400;-62
2024/02/18 07:10:28;;;;;;;16.37;11.93;;;9.10;74.40;;;;;;4908573;29;20268;-62
2024/02/18 07:12:54;;;;;;;15.77;11.77;;;9.00;75.40;;;;;;4907346;29;20656;-62
2024/02/18 07:15:21;;;;;;;15.83;11.77;;;9.00;75.50;;;;;;4908475;29;20672;-62
2024/02/18 07:17:47;;;;;;;16.53;12.27;;;9.10;74.70;;;;;;4905968;29;20236;-62
2024/02/18 07:20:14;;;;;;;13.70;11.40;;;9.10;75.00;;;;;;4897894;29;20267;-62
2024/02/18 07:22:41;;;;;;;17.00;12.20;;;9.00;75.20;;;;;;4890763;29;20332;-62
2024/02/18 07:25:07;;;;;;;16.80;11.80;;;9.10;75.20;;;;;;4904363;29;20690;-62
2024/02/18 07:27:34;;;;;;;13.60;11.40;;;9.00;75.50;;;;;;4897862;29;20228;-64
2024/02/18 07:30:01;;;;;;;15.00;11.20;;;8.90;76.10;;;;;;4906285;29;20216;-64
2024/02/18 07:32:27;;;;;;;16.60;11.70;;;9.00;76.20;;;;;;4900085;29;20224;-62
2024/02/18 07:34:54;;;;;;;15.00;11.53;;;9.00;76.20;;;;;;4906070;29;20675;-64
2024/02/18 07:37:20;;;;;;;16.30;12.47;;;9.10;76.00;;;;;;4897323;29;20280;-61
2024/02/18 07:39:47;;;;;;;15.53;13.07;;;9.20;75.60;;;;;;4905504;29;20242;-64
2024/02/18 07:42:13;;;;;;;19.20;14.20;;;9.20;75.50;;;;;;4894282;29;20236;-64
2024/02/18 07:44:40;;;;;;;16.33;13.43;;;9.20;74.70;;;;;;4892137;29;20214;-64
2024/02/18 07:47:06;;;;;;;16.37;12.93;;;9.20;74.40;;;;;;4903102;29;20302;-64
2024/02/18 07:49:33;;;;;;;16.23;13.33;;;9.20;75.00;;;;;;4901184;29;20567;-63
2024/02/18 07:52:00;;;;;;;15.83;13.23;;;9.20;75.20;;;;;;4897496;29;20258;-63
2024/02/18 07:54:26;;;;;;;18.13;13.57;;;9.10;75.80;;;;;;4904897;29;20204;-63
2024/02/18 07:56:53;;;;;;;18.63;14.03;;;9.20;75.60;;;;;;4897042;29;20264;-63
2024/02/18 07:59:21;;;;;;;14.87;13.27;;;9.20;75.30;;;;;;4892371;29;20274;-63
2024/02/18 08:01:48;;;;;;;17.13;12.70;;;9.20;74.90;;;;;;4882082;29;20237;-63
2024/02/18 08:04:14;;;;;;;16.03;12.93;;;9.30;73.90;;;;;;4899758;29;20257;-63
2024/02/18 08:06:41;;;;;;;16.67;13.70;;;9.30;73.50;;;;;;4891930;29;20205;-63
2024/02/18 08:09:07;;;;;;;16.20;13.77;;;9.20;73.50;;;;;;4891372;29;20234;-64
2024/02/18 08:11:34;;;;;;;16.27;13.23;;;9.30;73.80;;;;;;4900776;29;20277;-64
2024/02/18 08:14:00;;;;;;;15.60;13.47;;;9.30;73.20;;;;;;4898965;29;20918;-64
2024/02/18 08:16:28;;;;;;;16.53;13.43;;;9.30;73.10;;;;;;4893969;29;20266;-63
2024/02/18 08:18:55;;;;;;;17.10;13.77;;;9.30;73.30;;;;;;4897916;29;20333;-64
2024/02/18 08:21:21;;;;;;;14.40;12.73;;;9.40;73.40;;;;;;4903394;29;20281;-64
2024/02/18 08:23:48;;;;;;;15.63;12.33;;;9.30;72.50;;;;;;4886458;29;20241;-64
2024/02/18 08:26:15;;;;;;;14.70;12.13;;;9.40;72.60;;;;;;4894060;29;20220;-65
2024/02/18 08:28:41;;;;;;;14.00;12.03;;;9.50;72.70;;;;;;4896859;29;20210;-64
2024/02/18 08:31:08;;;;;;;13.50;12.10;;;9.50;71.40;;;;;;4882784;29;20667;-64
2024/02/18 08:33:34;;;;;;;13.90;12.40;;;9.60;71.20;;;;;;4895881;29;20282;-64
2024/02/18 08:36:01;;;;;;;14.37;12.40;;;9.70;70.60;;;;;;4898890;29;20641;-64
2024/02/18 08:38:27;;;;;;;13.73;12.30;;;9.70;70.30;;;;;;4901126;29;20294;-63
2024/02/18 08:40:54;;;;;;;12.97;11.40;;;9.80;69.80;;;;;;4899737;29;20214;-64
2024/02/18 08:43:20;;;;;;;13.40;12.00;;;10.00;68.30;;;;;;4894147;29;20221;-63
2024/02/18 08:45:47;;;;;;;13.60;11.70;;;10.10;67.50;;;;;;4890732;29;20261;-63
2024/02/18 08:48:14;;;;;;;13.80;12.17;;;10.40;66.80;;;;;;4904080;29;20284;-63
2024/02/18 08:50:40;;;;;;;15.13;12.20;;;10.90;65.30;;;;;;4893497;29;20831;-64
2024/02/18 08:53:08;;;;;;;15.40;13.63;;;11.00;63.40;;;;;;4899549;29;20269;-64
2024/02/18 08:55:34;;;;;;;14.43;12.90;;;11.30;63.40;;;;;;4902644;29;20209;-63
2024/02/18 08:58:01;;;;;;;13.20;11.60;;;11.70;62.30;;;;;;4895180;29;20231;-63
2024/02/18 09:00:28;;;;;;;14.50;12.07;;;11.70;60.40;;;;;;4899226;29;20316;-64
2024/02/18 09:02:55;;;;;;;13.97;12.47;;;11.90;61.00;;;;;;4882177;29;20280;-64
2024/02/18 09:05:22;;;;;;;15.37;13.60;;;12.10;60.50;;;;;;4885585;29;20215;-64
2024/02/18 09:07:49;;;;;;;16.30;13.70;;;12.50;60.00;;;;;;4903847;29;20211;-64
2024/02/18 09:10:15;;;;;;;16.77;13.93;;;12.80;57.80;;;;;;4905899;29;20266;-64
2024/02/18 09:12:42;;;;;;;16.37;13.47;;;12.90;58.70;;;;;;4890598;29;20235;-64
2024/02/18 09:15:10;;;;;;;16.80;13.53;;;13.10;55.70;;;;;;4889767;29;20227;-64
2024/02/18 09:17:36;;;;;;;14.87;13.27;;;13.00;57.30;;;;;;4895852;29;20203;-65
2024/02/18 09:20:03;;;;;;;17.43;13.33;;;12.80;57.40;;;;;;4883478;29;20480;-64
2024/02/18 09:22:29;;;;;;;18.83;14.13;;;13.10;55.70;;;;;;4886949;29;20269;-68
2024/02/18 09:24:56;;;;;;;17.23;13.30;;;12.90;56.20;;;;;;4894412;29;20212;-63
2024/02/18 09:27:24;;;;;;;15.40;12.50;;;13.10;55.80;;;;;;4895949;29;20219;-63
2024/02/18 09:29:50;;;;;;;18.80;15.53;;;13.70;55.60;;;;;;4905559;29;20293;-64
2024/02/18 09:32:17;;;;;;;14.97;12.30;;;14.00;53.70;;;;;;4887940;29;21736;-63
2024/02/18 09:34:43;;;;;;;12.93;11.50;;;14.10;52.20;;;;;;4892572;29;20277;-64
2024/02/18 09:37:10;;;;;;;12.20;10.07;;;14.30;51.90;;;;;;4896243;29;20288;-64
2024/02/18 09:39:36;;;;;;;11.60;9.70;;;14.60;48.60;;;;;;4904806;29;20241;-64
2024/02/18 09:42:03;;;;;;;10.27;8.67;;;14.20;48.90;;;;;;4900650;29;20288;-63
2024/02/18 09:44:30;;;;;;;12.10;9.67;;;14.80;48.10;;;;;;4899309;29;20628;-64
2024/02/18 09:46:57;;;;;;;10.97;9.43;;;15.10;47.40;;;;;;4907869;29;20219;-63
2024/02/18 09:49:24;;;;;;;10.07;8.87;;;15.00;46.10;;;;;;4896405;29;20298;-64
2024/02/18 09:51:51;;;;;;;11.10;9.10;;;15.10;46.10;;;;;;4900296;29;20234;-64
2024/02/18 09:54:17;;;;;;;12.47;9.57;;;15.30;46.00;;;;;;4899513;29;20242;-64
2024/02/18 09:56:44;;;;;;;12.40;8.90;;;15.40;45.10;;;;;;4906061;29;20211;-63
2024/02/18 09:59:11;;;;;;;11.10;9.23;;;15.30;44.00;;;;;;4901388;29;20228;-64
2024/02/18 10:01:38;;;;;;;11.50;8.83;;;14.80;45.70;;;;;;4903525;29;20234;-64
2024/02/18 10:04:04;;;;;;;11.37;9.10;;;14.40;46.40;;;;;;4903934;29;20305;-64
2024/02/18 10:06:31;;;;;;;10.33;9.17;;;14.80;46.00;;;;;;4906617;29;20233;-64
2024/02/18 10:08:58;;;;;;;11.37;8.60;;;15.70;45.00;;;;;;4890636;29;20701;-64
2024/02/18 10:11:24;;;;;;;9.20;8.20;;;16.30;43.10;;;;;;4889652;29;20231;-63
2024/02/18 10:13:51;;;;;;;10.00;7.77;;;15.10;44.40;;;;;;4903874;29;20257;-64
2024/02/18 10:16:17;;;;;;;9.70;7.60;;;14.80;43.60;;;;;;4902608;29;20434;-64
2024/02/18 10:18:43;;;;;;;9.20;7.83;;;15.60;43.50;;;;;;4897004;29;20318;-64
2024/02/18 10:21:11;;;;;;;8.90;7.93;;;16.10;41.20;;;;;;4896400;29;20611;-64
2024/02/18 10:23:39;;;;;;;7.37;6.67;;;16.20;39.70;;;;;;4895375;29;20234;-64
2024/02/18 10:26:07;;;;;;;9.03;7.00;;;16.40;40.50;;;;;;4895920;29;20221;-63
2024/02/18 10:28:33;;;;;;;8.43;6.23;;;15.30;40.70;;;;;;4885632;29;20666;-65
2024/02/18 10:31:00;;;;;;;8.50;7.43;;;14.90;42.40;;;;;;4886882;29;20209;-64
2024/02/18 10:33:27;;;;;;;10.17;8.10;;;14.70;43.30;;;;;;4896566;29;20247;-64
2024/02/18 10:35:53;;;;;;;8.30;7.07;;;14.10;44.10;;;;;;4895938;29;20219;-64
2024/02/18 10:38:21;;;;;;;9.87;7.40;;;14.20;44.00;;;;;;4894898;29;20214;-64
2024/02/18 10:40:47;;;;;;;9.37;6.73;;;15.00;42.60;;;;;;4896042;29;20227;-64
2024/02/18 10:43:15;;;;;;;7.63;5.63;;;15.20;39.90;;;;;;4891814;29;20266;-64
2024/02/18 10:45:41;;;;;;;8.30;6.70;;;14.80;40.30;;;;;;4885301;29;20235;-64
2024/02/18 10:48:09;;;;;;;7.23;6.53;;;14.50;41.00;;;;;;4891656;29;20230;-63
2024/02/18 10:50:36;;;;;;;7.43;6.67;;;16.70;37.50;;;;;;4882005;29;20463;-66
2024/02/18 10:53:03;;;;;;;8.03;6.97;;;21.30;30.80;;;;;;4880764;29;20247;-64
2024/02/18 10:55:29;;;;;;;6.37;5.70;;;24.30;26.70;;;;;;4887637;29;20222;-65
2024/02/18 10:57:56;;;;;;;6.10;5.50;;;24.80;25.60;;;;;;4899098;29;20242;-64
2024/02/18 11:00:22;;;;;;;8.73;6.13;;;22.20;27.80;;;;;;4890418;29;21372;-64
2024/02/18 11:02:49;;;;;;;5.65;5.10;;;20.60;29.90;;;;;;4896690;29;20230;-64
2024/02/18 11:05:15;;;;;;;6.43;5.72;;;20.10;31.70;;;;;;4886964;29;20219;-64
2024/02/18 11:07:42;;;;;;;6.22;5.63;;;19.60;31.40;;;;;;4875995;29;20302;-65
2024/02/18 11:10:08;;;;;;;6.10;5.50;;;19.20;31.70;;;;;;4868598;29;20343;-64
2024/02/18 11:12:35;;;;;;;5.88;5.30;;;19.00;32.60;;;;;;4855088;29;20644;-65
2024/02/18 11:15:02;;;;;;;6.75;5.15;;;18.20;33.00;;;;;;4866437;29;20215;-64
2024/02/18 11:17:28;;;;;;;5.25;4.75;;;18.40;33.10;;;;;;4852987;29;20817;-65
2024/02/18 11:19:55;;;;;;;6.57;5.07;;;18.30;33.50;;;;;;4857967;29;20250;-65
2024/02/18 11:22:22;;;;;;;5.90;5.30;;;18.30;33.80;;;;;;4857077;29;20239;-64
2024/02/18 11:24:51;;;;;;;5.93;5.30;;;17.90;34.30;;;;;;4865303;29;20289;-64
2024/02/18 11:27:17;;;;;;;6.40;5.80;;;17.80;35.00;;;;;;4864149;29;20215;-65
2024/02/18 11:29:44;;;;;;;5.88;5.28;;;17.80;34.00;;;;;;4866067;29;20215;-64
2024/02/18 11:32:10;;;;;;;5.97;5.40;;;18.40;33.10;;;;;;4856857;29;20259;-64
2024/02/18 11:34:37;;;;;;;6.28;5.07;;;19.40;31.70;;;;;;4845734;29;20294;-65
2024/02/18 11:37:03;;;;;;;6.05;5.20;;;19.00;31.90;;;;;;4863609;29;20294;-64
2024/02/18 11:39:30;;;;;;;6.15;5.25;;;19.10;31.80;;;;;;4845877;29;20875;-63
2024/02/18 11:41:56;;;;;;;5.60;5.10;;;19.70;30.40;;;;;;4858926;29;23637;-63
2024/02/18 11:44:23;;;;;;;5.75;5.00;;;19.60;31.00;;;;;;4880068;29;20211;-63
2024/02/18 11:46:50;;;;;;;7.75;5.40;;;20.00;30.30;;;;;;4884506;29;20215;-64
2024/02/18 11:49:16;;;;;;;5.85;5.28;;;19.40;30.20;;;;;;4890450;29;20667;-65
2024/02/18 11:51:43;;;;;;;5.85;5.18;;;19.60;30.30;;;;;;4903662;29;20243;-62
2024/02/18 11:54:09;;;;;;;5.68;4.80;;;20.30;30.00;;;;;;4898556;29;20274;-63
2024/02/18 11:56:36;;;;;;;5.68;5.18;;;20.50;29.70;;;;;;4907594;29;20727;-67
2024/02/18 11:59:01;;;;;;;7.63;5.40;;;20.30;30.00;;;;;;4908862;29;20611;-65
2024/02/18 12:01:30;;;;;;;5.40;4.85;;;20.70;29.50;;;;;;4894443;29;20309;-65
2024/02/18 12:03:56;;;;;;;4.65;3.70;;;20.00;29.40;;;;;;4894781;29;20217;-64
2024/02/18 12:06:23;;;;;;;5.85;5.20;;;20.30;29.30;;;;;;4898808;29;20262;-65
2024/02/18 12:08:49;;;;;;;5.07;4.57;;;20.30;29.20;;;;;;4883765;29;20306;-64
2024/02/18 12:11:16;;;;;;;4.95;4.45;;;20.60;29.50;;;;;;4909768;29;20292;-65
2024/02/18 12:13:43;;;;;;;4.57;4.07;;;21.20;28.50;;;;;;4893210;29;20219;-64
2024/02/18 12:16:09;;;;;;;6.10;4.70;;;21.20;28.50;;;;;;4895156;29;20210;-65
2024/02/18 12:18:36;;;;;;;5.13;4.68;;;21.60;28.20;;;;;;4895431;29;20262;-65
2024/02/18 12:21:02;;;;;;;4.78;4.38;;;19.90;29.40;;;;;;4897659;29;20262;-65
2024/02/18 12:23:30;;;;;;;4.90;4.00;;;20.80;28.90;;;;;;4897293;29;20221;-65
2024/02/18 12:25:56;;;;;;;4.80;4.20;;;23.80;25.90;;;;;;4891839;29;20207;-65
2024/02/18 12:28:23;;;;;;;3.67;3.10;;;24.30;25.00;;;;;;4901499;29;20635;-69
2024/02/18 12:30:50;;;;;;;4.03;3.38;;;24.60;24.60;;;;;;4893627;29;20202;-65
2024/02/18 12:33:19;;;;;;;4.43;4.03;;;24.70;24.80;;;;;;4897110;29;20999;-65